Time;durP1;ratioP1;P1;durP2;ratioP2;P2;SDS_P1;SDS_P2;PMS_P1;PMS_P2;Temp;Humidity;BMP_temperature;BMP_pressure;BME280_temperature;BME280_humidity;BME280_pressure;Samples;Min_cycle;Max_cycle;Signal;HPM_P1;HPM_P2
2023/07/24 00:00:35;;;;;;;5.43;2.53;;;;;;;27.39;48.94;99291.13;4409504;32;34613;-68
2023/07/24 00:03:03;;;;;;;7.62;2.70;;;;;;;27.39;49.04;99291.13;4423186;32;33688;-69
2023/07/24 00:05:31;;;;;;;5.53;2.42;;;;;;;27.42;49.05;99289.84;4419234;32;33871;-69
2023/07/24 00:07:58;;;;;;;4.35;2.58;;;;;;;27.46;48.93;99292.94;4420031;32;33493;-68
2023/07/24 00:10:26;;;;;;;7.03;3.28;;;;;;;27.45;48.88;99283.00;4417471;32;34318;-69
2023/07/24 00:12:54;;;;;;;5.72;3.10;;;;;;;27.41;48.92;99290.88;4422127;32;35520;-69
2023/07/24 00:15:21;;;;;;;5.57;2.90;;;;;;;27.38;49.05;99283.13;4420866;32;33877;-69
2023/07/24 00:17:49;;;;;;;7.22;3.12;;;;;;;27.15;49.61;99286.63;4422150;32;33466;-69
2023/07/24 00:20:17;;;;;;;9.70;3.62;;;;;;;27.27;49.18;99290.25;4421800;32;35616;-69
2023/07/24 00:22:44;;;;;;;5.93;2.70;;;;;;;27.22;49.30;99281.88;4421757;32;33746;-69
2023/07/24 00:25:12;;;;;;;6.18;2.90;;;;;;;27.30;49.14;99278.81;4414695;32;33820;-70
2023/07/24 00:27:39;;;;;;;4.78;2.85;;;;;;;27.12;49.66;99284.31;4420405;32;33035;-69
2023/07/24 00:30:07;;;;;;;6.18;3.25;;;;;;;27.20;49.58;99281.28;4415589;32;33520;-70
2023/07/24 00:32:35;;;;;;;5.90;3.20;;;;;;;27.17;49.58;99274.34;4420177;32;33769;-69
2023/07/24 00:35:03;;;;;;;5.25;2.95;;;;;;;27.04;49.94;99277.25;4417708;32;33973;-69
2023/07/24 00:37:30;;;;;;;9.95;3.55;;;;;;;27.19;49.57;99263.13;4428416;32;33574;-69
2023/07/24 00:39:58;;;;;;;6.72;3.22;;;;;;;27.18;49.68;99269.69;4415922;32;33470;-68
2023/07/24 00:42:26;;;;;;;4.95;3.00;;;;;;;27.20;49.73;99274.97;4417785;32;33824;-68
2023/07/24 00:44:53;;;;;;;5.78;3.37;;;;;;;27.23;49.73;99266.25;4420221;32;35210;-68
2023/07/24 00:47:21;;;;;;;5.82;2.95;;;;;;;27.24;49.60;99265.19;4422410;32;33670;-67
2023/07/24 00:49:50;;;;;;;5.97;3.20;;;;;;;27.22;49.63;99265.41;4419991;32;34527;-68
2023/07/24 00:52:17;;;;;;;8.38;3.67;;;;;;;27.23;49.81;99266.25;4417279;32;34933;-68
2023/07/24 00:54:45;;;;;;;7.28;3.28;;;;;;;27.13;50.02;99262.16;4409883;32;33798;-68
2023/07/24 00:57:13;;;;;;;5.22;3.15;;;;;;;27.10;50.10;99248.88;4419601;32;32955;-68
2023/07/24 00:59:42;;;;;;;7.15;3.33;;;;;;;27.10;49.97;99251.63;4421805;32;33433;-68
2023/07/24 01:02:09;;;;;;;5.20;3.35;;;;;;;27.08;50.08;99259.25;4403277;32;34182;-67
2023/07/24 01:04:39;;;;;;;5.05;2.87;;;;;;;26.97;50.48;99254.56;4401954;32;34100;-67
2023/07/24 01:07:06;;;;;;;7.20;2.85;;;;;;;27.04;50.32;99251.72;4419032;32;33444;-68
2023/07/24 01:09:34;;;;;;;6.35;3.03;;;;;;;27.05;50.28;99247.88;4423386;32;34704;-68
2023/07/24 01:12:22;;;;;;;6.35;3.35;;;;;;;27.06;50.35;99255.91;4419001;32;33899;-68
2023/07/24 01:14:55;;;;;;;5.85;3.37;;;;;;;27.07;50.32;99254.00;4417662;32;33976;-68
2023/07/24 01:17:24;;;;;;;5.45;3.10;;;;;;;27.06;50.35;99255.03;4401374;32;34503;-68
2023/07/24 01:19:56;;;;;;;6.68;3.12;;;;;;;27.07;50.46;99254.00;4404154;32;33967;-68
2023/07/24 01:22:29;;;;;;;5.45;2.55;;;;;;;27.06;50.42;99250.41;4419057;32;34742;-68
2023/07/24 01:25:11;;;;;;;5.20;2.97;;;;;;;27.08;50.34;99247.41;4413014;32;34015;-68
2023/07/24 01:27:43;;;;;;;8.55;3.67;;;;;;;27.04;50.62;99247.06;4414509;32;33770;-68
2023/07/24 01:30:11;;;;;;;12.05;4.00;;;;;;;26.99;50.87;99246.91;4414814;32;34987;-67
2023/07/24 01:32:39;;;;;;;5.22;3.20;;;;;;;26.93;51.00;99248.69;4419628;32;33315;-68
2023/07/24 01:35:08;;;;;;;8.55;3.12;;;;;;;26.96;50.80;99244.63;4416805;32;33650;-68
2023/07/24 01:37:39;;;;;;;6.22;3.42;;;;;;;26.93;50.81;99247.84;4401278;32;33372;-68
2023/07/24 01:40:08;;;;;;;6.25;3.15;;;;;;;26.89;50.92;99252.97;4415450;32;33927;-68
2023/07/24 01:42:36;;;;;;;5.70;3.22;;;;;;;26.87;51.13;99241.41;4405676;32;33952;-68
2023/07/24 01:45:04;;;;;;;6.37;3.28;;;;;;;26.85;51.10;99240.78;4412799;32;33847;-67
2023/07/24 01:47:32;;;;;;;7.37;3.75;;;;;;;26.85;51.09;99246.28;4416461;32;33406;-67
2023/07/24 01:50:00;;;;;;;23.12;3.35;;;;;;;26.85;51.22;99243.53;4419170;32;32023;-67
2023/07/24 01:52:28;;;;;;;7.10;2.85;;;;;;;26.79;51.39;99238.97;4419031;32;34907;-68
2023/07/24 01:54:55;;;;;;;5.00;2.85;;;;;;;26.82;51.43;99240.41;4419292;32;34204;-68
2023/07/24 01:57:23;;;;;;;8.20;3.75;;;;;;;26.80;51.46;99240.63;4426072;32;33469;-67
2023/07/24 01:59:51;;;;;;;5.43;2.67;;;;;;;26.78;51.51;99239.22;4417258;32;33787;-68
2023/07/24 02:02:18;;;;;;;5.70;3.35;;;;;;;26.70;51.88;99241.19;4416940;32;34043;-68
2023/07/24 02:04:46;;;;;;;5.90;3.05;;;;;;;26.71;51.83;99240.13;4419501;32;33792;-68
2023/07/24 02:07:14;;;;;;;5.25;2.85;;;;;;;26.66;51.93;99245.47;4418726;32;34401;-68
2023/07/24 02:09:42;;;;;;;5.30;2.80;;;;;;;26.68;51.89;99237.84;4418919;32;33894;-68
2023/07/24 02:12:10;;;;;;;4.45;2.85;;;;;;;26.69;51.90;99234.03;4417222;32;34913;-68
2023/07/24 02:14:38;;;;;;;12.68;3.15;;;;;;;26.64;52.07;99241.28;4417233;32;33866;-68
2023/07/24 02:17:05;;;;;;;5.87;3.08;;;;;;;26.59;52.23;99241.97;4419911;32;34392;-68
2023/07/24 02:19:34;;;;;;;7.60;3.62;;;;;;;26.60;52.22;99240.06;4418247;32;32646;-68
2023/07/24 02:22:02;;;;;;;9.75;3.47;;;;;;;26.59;52.41;99236.50;4421087;32;34170;-68
2023/07/24 02:24:29;;;;;;;9.05;3.53;;;;;;;26.57;52.42;99241.34;4414174;32;33987;-69
2023/07/24 02:26:58;;;;;;;5.78;3.25;;;;;;;26.54;52.51;99235.50;4418849;32;33489;-69
2023/07/24 02:29:25;;;;;;;4.87;2.62;;;;;;;26.52;52.60;99235.75;4417731;32;33717;-69
2023/07/24 02:31:54;;;;;;;6.12;3.17;;;;;;;26.49;52.68;99233.47;4418507;32;34129;-69
2023/07/24 02:34:25;;;;;;;5.15;2.55;;;;;;;26.45;52.49;99226.69;4418619;32;34200;-69
2023/07/24 02:36:53;;;;;;;11.38;3.85;;;;;;;26.39;52.45;99230.41;4423369;32;34589;-69
2023/07/24 02:39:21;;;;;;;5.43;3.17;;;;;;;26.38;52.34;99234.19;4415736;32;33382;-69
2023/07/24 02:41:49;;;;;;;7.47;2.53;;;;;;;26.27;52.55;99240.47;4418996;32;35206;-68
2023/07/24 02:44:17;;;;;;;5.37;2.70;;;;;;;26.25;52.36;99237.94;4418222;32;34048;-68
2023/07/24 02:46:44;;;;;;;6.57;2.67;;;;;;;26.18;52.42;99237.16;4418864;32;33874;-68
2023/07/24 02:49:12;;;;;;;6.80;3.42;;;;;;;26.05;52.66;99240.06;4418341;32;32188;-69
2023/07/24 02:51:39;;;;;;;6.32;3.20;;;;;;;25.91;53.03;99248.44;4424998;32;35124;-69
2023/07/24 02:54:07;;;;;;;6.45;4.12;;;;;;;25.98;52.89;99234.66;4415150;32;34105;-70
2023/07/24 02:56:35;;;;;;;5.10;2.67;;;;;;;25.88;53.24;99237.91;4417583;32;33361;-70
2023/07/24 02:59:03;;;;;;;6.05;3.05;;;;;;;25.89;53.29;99244.25;4416835;32;33684;-69
2023/07/24 03:01:30;;;;;;;7.78;4.32;;;;;;;25.86;53.42;99236.47;4626517;27;33959;-71
2023/07/24 03:03:58;;;;;;;8.00;3.08;;;;;;;25.83;53.53;99239.66;4431379;32;34772;-71
2023/07/24 03:06:26;;;;;;;5.65;3.72;;;;;;;25.79;53.56;99236.50;4433906;32;33509;-71
2023/07/24 03:08:54;;;;;;;6.47;3.03;;;;;;;25.78;53.54;99232.94;4433370;32;33770;-71
2023/07/24 03:11:22;;;;;;;6.28;3.65;;;;;;;25.76;53.64;99232.31;4438588;32;34772;-71
2023/07/24 03:13:49;;;;;;;7.87;4.18;;;;;;;25.79;53.55;99225.53;4434200;32;34869;-71
2023/07/24 03:16:19;;;;;;;4.35;2.50;;;;;;;25.77;53.63;99222.16;4434142;32;33446;-71
2023/07/24 03:18:47;;;;;;;4.47;2.37;;;;;;;25.65;53.99;99224.84;4435457;32;32148;-71
2023/07/24 03:21:15;;;;;;;7.12;3.60;;;;;;;25.74;53.64;99228.94;4435697;32;34045;-71
2023/07/24 03:23:42;;;;;;;4.87;2.85;;;;;;;25.73;53.75;99218.22;4434498;32;34046;-71
2023/07/24 03:26:10;;;;;;;6.35;2.78;;;;;;;25.69;53.86;99217.00;4442108;32;33702;-71
2023/07/24 03:28:38;;;;;;;7.43;3.55;;;;;;;25.76;53.69;99223.25;4436215;32;33671;-71
2023/07/24 03:31:05;;;;;;;5.55;3.28;;;;;;;25.67;53.79;99225.44;4433679;32;33926;-72
2023/07/24 03:33:33;;;;;;;5.40;3.00;;;;;;;25.57;54.19;99216.87;4435380;32;33899;-71
2023/07/24 03:36:01;;;;;;;5.87;3.33;;;;;;;25.59;53.98;99217.50;4429243;32;33440;-70
2023/07/24 03:38:29;;;;;;;4.68;2.70;;;;;;;25.64;53.86;99219.56;4437450;32;34684;-71
2023/07/24 03:40:56;;;;;;;5.78;3.10;;;;;;;25.63;53.94;99216.00;4444612;32;33815;-71
2023/07/24 03:43:24;;;;;;;6.57;3.35;;;;;;;25.60;54.05;99221.91;4435287;32;34044;-71
2023/07/24 03:45:52;;;;;;;6.50;3.03;;;;;;;25.41;54.50;99214.72;4424706;32;33407;-72
2023/07/24 03:48:19;;;;;;;5.30;2.92;;;;;;;25.55;54.18;99217.13;4433179;32;33685;-72
2023/07/24 03:50:50;;;;;;;6.32;2.58;;;;;;;25.58;54.16;99215.81;4433657;32;34767;-72
2023/07/24 03:53:17;;;;;;;5.62;3.00;;;;;;;25.56;54.17;99204.25;4418021;32;33799;-72
2023/07/24 03:55:45;;;;;;;6.40;3.60;;;;;;;25.50;54.45;99207.91;4430479;32;33364;-72
2023/07/24 03:58:13;;;;;;;4.55;3.05;;;;;;;25.46;54.48;99201.19;4434842;32;33797;-72
2023/07/24 04:00:40;;;;;;;6.18;2.87;;;;;;;25.53;54.33;99210.19;4437334;32;33985;-72
2023/07/24 04:03:09;;;;;;;5.82;3.58;;;;;;;25.52;54.41;99213.97;4437152;32;33900;-72
2023/07/24 04:05:37;;;;;;;8.10;4.15;;;;;;;25.53;54.31;99211.03;4431778;32;33187;-72
2023/07/24 04:08:04;;;;;;;14.65;4.20;;;;;;;25.53;54.37;99215.66;4437344;32;35095;-73
2023/07/24 04:10:32;;;;;;;6.72;3.58;;;;;;;25.55;54.31;99225.34;4429730;32;34891;-72
2023/07/24 04:13:00;;;;;;;6.80;3.35;;;;;;;25.47;54.34;99219.31;4437551;32;35316;-71
2023/07/24 04:15:27;;;;;;;6.28;3.45;;;;;;;25.54;54.33;99211.84;4438419;32;33260;-69
2023/07/24 04:17:55;;;;;;;7.22;3.08;;;;;;;25.52;54.45;99214.84;4437418;32;34472;-77
2023/07/24 04:20:23;;;;;;;8.02;3.83;;;;;;;25.67;54.29;99219.12;4439716;32;33965;-69
2023/07/24 04:22:50;;;;;;;7.15;3.65;;;;;;;25.66;54.66;99215.53;4436090;32;34215;-72
2023/07/24 04:25:18;;;;;;;8.30;3.08;;;;;;;25.64;55.03;99203.13;4442597;32;34472;-72
2023/07/24 04:27:46;;;;;;;6.90;3.20;;;;;;;25.72;54.68;99200.94;4431147;32;33943;-69
2023/07/24 04:30:13;;;;;;;8.18;3.33;;;;;;;25.92;54.06;99198.00;4435759;32;34135;-69
2023/07/24 04:32:41;;;;;;;5.95;2.92;;;;;;;26.09;53.59;99200.16;4438263;32;34295;-69
2023/07/24 04:35:09;;;;;;;6.78;3.15;;;;;;;26.15;53.70;99202.81;4435175;32;33259;-68
2023/07/24 04:37:36;;;;;;;11.05;4.10;;;;;;;26.21;53.83;99212.03;4441821;32;33686;-68
2023/07/24 04:40:05;;;;;;;7.18;3.62;;;;;;;26.18;54.09;99207.00;4441325;32;35565;-68
2023/07/24 04:42:32;;;;;;;6.60;3.83;;;;;;;26.21;53.96;99210.13;4435494;32;33948;-69
2023/07/24 04:45:00;;;;;;;6.15;3.72;;;;;;;26.48;53.37;99216.16;4437275;32;33739;-69
2023/07/24 04:47:28;;;;;;;5.95;3.28;;;;;;;26.58;53.29;99212.00;4439788;32;33940;-69
2023/07/24 04:49:55;;;;;;;6.43;3.33;;;;;;;26.64;53.40;99202.84;4436207;32;34976;-69
2023/07/24 04:52:23;;;;;;;9.30;3.90;;;;;;;26.72;53.33;99205.28;4442560;32;33853;-69
2023/07/24 04:54:51;;;;;;;8.63;3.92;;;;;;;26.54;53.90;99210.81;4446694;32;34345;-69
2023/07/24 04:57:18;;;;;;;9.30;3.80;;;;;;;26.69;53.17;99212.06;4439195;32;33975;-68
2023/07/24 04:59:46;;;;;;;8.93;4.93;;;;;;;26.83;52.78;99220.94;4435867;32;35274;-69
2023/07/24 05:02:15;;;;;;;5.10;2.90;;;;;;;26.87;52.70;99216.69;4428506;32;34217;-69
2023/07/24 05:04:43;;;;;;;8.05;3.72;;;;;;;26.88;52.58;99225.75;4432030;32;34621;-69
2023/07/24 05:07:11;;;;;;;10.40;4.93;;;;;;;27.04;52.32;99219.59;4434900;32;33714;-71
2023/07/24 05:09:38;;;;;;;8.50;3.95;;;;;;;27.03;52.19;99217.94;4446641;32;34079;-67
2023/07/24 05:12:06;;;;;;;7.20;3.22;;;;;;;26.91;52.50;99223.37;4439224;32;34110;-69
2023/07/24 05:14:34;;;;;;;9.50;4.80;;;;;;;26.97;52.58;99223.50;4432008;32;34187;-69
2023/07/24 05:17:02;;;;;;;8.70;4.43;;;;;;;27.10;52.46;99220.56;4435497;32;33767;-68
2023/07/24 05:19:29;;;;;;;9.35;4.70;;;;;;;27.23;52.39;99219.56;4440655;32;36813;-68
2023/07/24 05:21:59;;;;;;;7.97;4.22;;;;;;;27.49;52.09;99212.78;4435957;32;33849;-69
2023/07/24 05:24:26;;;;;;;7.95;4.18;;;;;;;27.69;51.58;99215.16;4433378;32;34562;-69
2023/07/24 05:26:54;;;;;;;11.18;4.70;;;;;;;27.62;51.65;99218.88;4439324;32;33634;-69
2023/07/24 05:29:22;;;;;;;8.00;3.92;;;;;;;27.56;51.92;99222.56;4440769;32;33799;-69
2023/07/24 05:31:50;;;;;;;13.68;5.30;;;;;;;27.48;52.17;99222.94;4434420;32;33884;-70
2023/07/24 05:34:17;;;;;;;8.88;5.12;;;;;;;27.69;51.41;99221.50;4433364;32;33759;-69
2023/07/24 05:36:45;;;;;;;9.25;4.30;;;;;;;27.72;51.56;99220.19;4434662;32;33682;-70
2023/07/24 05:39:13;;;;;;;7.12;4.22;;;;;;;27.60;52.19;99217.44;4432840;32;35016;-70
2023/07/24 05:41:40;;;;;;;6.40;3.17;;;;;;;27.54;52.83;99218.38;4444269;32;34917;-69
2023/07/24 05:44:08;;;;;;;7.70;4.68;;;;;;;27.64;52.66;99211.22;4433767;32;33221;-69
2023/07/24 05:46:36;;;;;;;11.23;5.43;;;;;;;27.22;53.67;99223.34;4436210;32;33579;-69
2023/07/24 05:49:03;;;;;;;7.47;4.43;;;;;;;27.30;53.73;99221.13;4445101;32;35051;-70
2023/07/24 05:51:31;;;;;;;7.37;4.22;;;;;;;27.73;52.92;99221.84;4435272;32;34329;-70
2023/07/24 05:53:59;;;;;;;7.78;4.93;;;;;;;27.89;52.56;99215.66;4435057;32;34371;-69
2023/07/24 05:56:27;;;;;;;8.93;4.30;;;;;;;27.72;52.96;99206.44;4436690;32;34129;-69
2023/07/24 05:58:55;;;;;;;11.85;4.75;;;;;;;27.73;53.26;99213.59;4434384;32;35002;-69
2023/07/24 06:01:23;;;;;;;7.57;4.47;;;;;;;27.71;53.65;99210.28;4436154;32;34173;-69
2023/07/24 06:03:51;;;;;;;8.73;4.75;;;;;;;27.83;53.16;99189.12;4436875;32;34455;-68
2023/07/24 06:06:19;;;;;;;11.38;4.85;;;;;;;28.00;53.01;99186.50;4435836;32;33867;-68
2023/07/24 06:08:47;;;;;;;8.80;4.57;;;;;;;27.97;53.14;99185.06;4435134;32;33933;-69
2023/07/24 06:11:15;;;;;;;10.70;6.12;;;;;;;27.90;53.63;99189.84;4436102;32;34437;-68
2023/07/24 06:13:43;;;;;;;7.87;4.35;;;;;;;27.56;55.07;99195.09;4435791;32;33665;-69
2023/07/24 06:16:12;;;;;;;10.13;5.95;;;;;;;27.81;54.57;99194.88;4433918;32;34695;-69
2023/07/24 06:18:40;;;;;;;8.50;4.80;;;;;;;27.77;54.99;99190.09;4441856;32;33947;-69
2023/07/24 06:21:08;;;;;;;9.82;4.93;;;;;;;27.59;55.96;99191.03;4434735;32;35336;-68
2023/07/24 06:23:35;;;;;;;14.18;5.60;;;;;;;27.91;55.28;99191.53;4433082;32;33568;-69
2023/07/24 06:26:03;;;;;;;9.73;4.93;;;;;;;28.29;54.14;99195.63;4435241;32;34278;-70
2023/07/24 06:28:32;;;;;;;7.82;4.82;;;;;;;27.75;56.21;99192.22;4433343;32;33961;-70
2023/07/24 06:30:59;;;;;;;8.95;4.20;;;;;;;28.13;55.53;99191.72;4435413;32;34954;-70
2023/07/24 06:33:27;;;;;;;9.07;5.03;;;;;;;28.19;54.92;99192.69;4427607;32;37060;-70
2023/07/24 06:35:55;;;;;;;11.95;6.07;;;;;;;28.41;53.84;99201.13;4428995;32;33950;-69
2023/07/24 06:38:22;;;;;;;11.40;5.45;;;;;;;28.47;54.40;99205.66;4432062;32;33922;-70
2023/07/24 06:40:50;;;;;;;10.20;4.97;;;;;;;28.45;54.60;99194.91;4432564;32;33816;-69
2023/07/24 06:43:18;;;;;;;8.88;5.03;;;;;;;28.62;53.57;99191.34;4434757;32;34400;-70
2023/07/24 06:45:45;;;;;;;7.55;4.47;;;;;;;28.68;53.89;99202.22;4433388;32;35045;-70
2023/07/24 06:48:13;;;;;;;8.60;5.43;;;;;;;28.48;54.82;99207.34;4438982;32;35025;-70
2023/07/24 06:50:41;;;;;;;8.77;5.22;;;;;;;28.54;53.99;99195.34;4433395;32;33841;-68
2023/07/24 06:53:08;;;;;;;12.98;5.53;;;;;;;28.80;53.24;99188.41;4433895;32;33744;-69
2023/07/24 06:55:36;;;;;;;8.52;5.18;;;;;;;28.95;52.83;99196.94;4437338;32;34121;-68
2023/07/24 06:58:04;;;;;;;8.73;4.87;;;;;;;28.88;53.91;99198.19;4434797;32;33793;-69
2023/07/24 07:00:32;;;;;;;8.57;5.68;;;;;;;28.95;53.42;99191.41;4435777;32;35354;-68
2023/07/24 07:02:59;;;;;;;9.50;5.85;;;;;;;28.49;54.58;99201.56;4438411;32;33572;-68
2023/07/24 07:05:27;;;;;;;8.13;5.10;;;;;;;28.89;52.37;99195.19;4434850;32;33724;-68
2023/07/24 07:07:55;;;;;;;16.40;6.50;;;;;;;28.79;53.25;99190.31;4436097;32;34036;-68
2023/07/24 07:10:23;;;;;;;10.95;5.53;;;;;;;29.00;53.27;99180.53;4435114;32;34622;-68
2023/07/24 07:12:50;;;;;;;8.50;5.15;;;;;;;29.05;52.86;99179.78;4431953;32;33553;-68
2023/07/24 07:15:18;;;;;;;11.30;6.28;;;;;;;29.02;52.98;99172.00;4430718;32;34023;-68
2023/07/24 07:17:46;;;;;;;9.20;4.82;;;;;;;28.94;53.48;99172.41;4447909;32;34054;-68
2023/07/24 07:20:14;;;;;;;9.07;5.57;;;;;;;29.12;53.16;99169.47;4447475;32;35228;-67
2023/07/24 07:22:41;;;;;;;9.90;5.00;;;;;;;29.05;53.06;99174.25;4439016;32;34466;-67
2023/07/24 07:25:09;;;;;;;11.77;5.95;;;;;;;29.20;52.76;99165.44;4430876;32;33756;-69
2023/07/24 07:27:37;;;;;;;8.13;5.43;;;;;;;29.52;50.54;99154.63;4434070;32;33938;-67
2023/07/24 07:30:05;;;;;;;10.50;6.07;;;;;;;29.49;50.73;99153.22;4433063;32;34904;-68
2023/07/24 07:32:33;;;;;;;9.70;5.87;;;;;;;28.83;52.77;99154.87;4442672;32;33630;-68
2023/07/24 07:35:00;;;;;;;8.38;5.75;;;;;;;29.06;51.83;99150.34;4434253;32;33830;-69
2023/07/24 07:37:28;;;;;;;8.20;5.05;;;;;;;29.28;51.52;99151.25;4440009;32;33688;-66
2023/07/24 07:39:56;;;;;;;9.95;5.72;;;;;;;29.59;50.91;99143.44;4435195;32;32483;-66
2023/07/24 07:42:23;;;;;;;8.77;6.05;;;;;;;29.60;50.81;99145.09;4435004;32;34817;-65
2023/07/24 07:44:51;;;;;;;9.38;6.57;;;;;;;29.43;52.30;99148.72;4433901;32;32298;-66
2023/07/24 07:47:19;;;;;;;8.80;5.53;;;;;;;29.82;50.28;99148.75;4432437;32;34211;-66
2023/07/24 07:49:47;;;;;;;8.07;5.00;;;;;;;29.83;50.38;99149.59;4435366;32;34205;-65
2023/07/24 07:52:17;;;;;;;9.68;5.60;;;;;;;29.44;50.45;99144.88;4430461;32;33424;-67
2023/07/24 07:54:48;;;;;;;9.70;6.45;;;;;;;29.01;51.73;99143.62;4432704;32;34630;-67
2023/07/24 07:57:18;;;;;;;9.40;5.40;;;;;;;29.54;50.18;99144.22;4434848;32;34137;-70
2023/07/24 07:59:49;;;;;;;9.75;5.35;;;;;;;29.58;51.10;99152.81;4438509;32;33693;-69
2023/07/24 08:02:16;;;;;;;11.55;5.70;;;;;;;29.73;50.51;99153.06;4433702;32;33546;-68
2023/07/24 08:04:44;;;;;;;9.02;5.68;;;;;;;30.28;48.84;99145.81;4434555;32;35074;-69
2023/07/24 08:07:12;;;;;;;8.75;5.07;;;;;;;30.23;48.63;99138.28;4431831;32;33614;-69
2023/07/24 08:09:39;;;;;;;12.68;5.45;;;;;;;30.10;49.78;99142.22;4441201;32;34338;-69
2023/07/24 08:12:07;;;;;;;10.75;7.43;;;;;;;30.53;49.06;99143.31;4417551;32;31832;-67
2023/07/24 08:14:35;;;;;;;11.00;6.75;;;;;;;30.18;49.98;99144.56;4425867;32;33232;-68
2023/07/24 08:17:03;;;;;;;11.55;7.43;;;;;;;30.52;49.08;99140.81;4428490;32;34927;-69
2023/07/24 08:19:31;;;;;;;8.95;5.32;;;;;;;30.56;49.26;99142.81;4431594;32;33788;-68
2023/07/24 08:21:59;;;;;;;11.15;7.25;;;;;;;30.52;48.69;99138.03;4433515;32;33450;-69
2023/07/24 08:24:26;;;;;;;7.93;5.22;;;;;;;30.52;49.21;99138.88;4430337;32;33927;-70
2023/07/24 08:26:54;;;;;;;10.77;6.75;;;;;;;30.60;49.33;99141.19;4418071;32;33714;-69
2023/07/24 08:29:22;;;;;;;8.45;5.05;;;;;;;30.38;48.92;99149.50;4431387;32;33805;-70
2023/07/24 08:31:49;;;;;;;14.02;6.45;;;;;;;30.51;49.06;99144.66;4438143;32;33285;-68
2023/07/24 08:34:18;;;;;;;12.35;8.68;;;;;;;30.61;49.21;99148.37;4442173;32;34783;-68
2023/07/24 08:36:45;;;;;;;11.07;6.87;;;;;;;30.33;49.50;99146.66;4431310;32;34236;-68
2023/07/24 08:39:13;;;;;;;10.10;6.43;;;;;;;30.57;48.34;99136.19;4444044;32;35129;-68
2023/07/24 08:41:40;;;;;;;10.73;6.47;;;;;;;30.80;47.80;99125.94;4439025;32;34410;-68
2023/07/24 08:44:08;;;;;;;10.98;5.90;;;;;;;30.58;48.32;99137.84;4425353;32;34937;-68
2023/07/24 08:46:38;;;;;;;10.48;6.40;;;;;;;30.57;48.19;99129.81;4430011;32;33531;-69
2023/07/24 08:49:07;;;;;;;11.40;7.07;;;;;;;30.94;47.09;99121.62;4445975;32;34300;-69
2023/07/24 08:51:35;;;;;;;11.35;7.55;;;;;;;31.06;47.13;99122.28;4429714;32;33587;-67
2023/07/24 08:54:03;;;;;;;9.95;6.15;;;;;;;31.20;45.54;99116.31;4437459;32;34272;-68
2023/07/24 08:56:31;;;;;;;8.40;5.78;;;;;;;30.62;46.57;99116.87;4390448;32;35325;-67
2023/07/24 08:58:59;;;;;;;11.65;6.82;;;;;;;30.66;45.45;99117.22;4390648;32;34263;-67
2023/07/24 09:01:27;;;;;;;9.05;6.15;;;;;;;31.10;45.18;99114.31;4392060;32;33731;-67
2023/07/24 09:03:56;;;;;;;12.75;7.47;;;;;;;31.08;45.44;99111.81;4397746;32;35330;-67
2023/07/24 09:06:26;;;;;;;12.32;7.22;;;;;;;30.64;46.49;99102.81;4393611;32;33737;-67
2023/07/24 09:08:54;;;;;;;12.77;8.23;;;;;;;30.87;47.10;99104.44;4388501;32;34713;-67
2023/07/24 09:11:22;;;;;;;11.35;8.07;;;;;;;31.02;46.22;99098.22;4387659;32;34635;-68
2023/07/24 09:13:50;;;;;;;10.32;6.53;;;;;;;31.14;46.07;99100.78;4388263;32;33704;-68
2023/07/24 09:16:25;;;;;;;10.75;7.22;;;;;;;31.65;45.15;99088.16;4386696;32;33472;-68
2023/07/24 09:18:53;;;;;;;10.43;7.25;;;;;;;31.84;44.53;99087.69;4364539;32;34907;-68
2023/07/24 09:21:29;;;;;;;10.38;6.68;;;;;;;31.70;44.12;99087.34;4388900;32;33272;-68
2023/07/24 09:23:58;;;;;;;12.00;7.35;;;;;;;32.07;43.14;99090.03;4382105;32;34645;-69
2023/07/24 09:26:25;;;;;;;11.07;7.82;;;;;;;32.15;41.82;99088.69;4388114;32;34217;-69
2023/07/24 09:28:55;;;;;;;11.43;6.00;;;;;;;31.95;41.85;99084.72;4369507;32;34194;-69
2023/07/24 09:31:34;;;;;;;10.52;6.87;;;;;;;31.96;41.32;99085.56;4370161;32;34058;-68
2023/07/24 09:34:02;;;;;;;12.20;7.28;;;;;;;32.42;40.52;99085.69;4385171;32;33424;-69
2023/07/24 09:36:38;;;;;;;12.32;8.45;;;;;;;32.23;36.90;99090.91;4395689;32;33991;-67
2023/07/24 09:39:10;;;;;;;12.88;7.60;;;;;;;32.17;37.27;99089.25;4401681;32;33817;-66
2023/07/24 09:41:39;;;;;;;12.18;7.28;;;;;;;32.43;36.60;99079.09;4401140;32;33557;-67
2023/07/24 09:44:11;;;;;;;12.98;7.72;;;;;;;32.44;37.78;99066.91;4404038;32;34148;-67
2023/07/24 09:46:39;;;;;;;13.07;8.85;;;;;;;32.81;36.52;99058.34;4398565;32;33680;-66
2023/07/24 09:49:10;;;;;;;14.80;9.13;;;;;;;31.83;36.65;99064.72;4394109;32;35248;-66
2023/07/24 09:51:38;;;;;;;18.23;10.13;;;;;;;32.18;35.49;99054.91;4391498;32;33996;-67
2023/07/24 09:54:13;;;;;;;14.35;7.90;;;;;;;32.31;36.65;99059.09;4399627;32;33471;-66
2023/07/24 09:56:41;;;;;;;13.80;7.80;;;;;;;32.63;35.43;99054.19;4399648;32;35029;-66
2023/07/24 09:59:21;;;;;;;12.00;7.80;;;;;;;32.84;36.34;99046.72;4400626;32;33910;-66
2023/07/24 10:01:48;;;;;;;15.20;9.05;;;;;;;32.78;35.17;99046.97;4387797;32;34767;-65
2023/07/24 10:04:17;;;;;;;12.07;8.10;;;;;;;32.49;35.27;99053.06;4401337;32;33797;-67
2023/07/24 10:06:45;;;;;;;13.68;8.55;;;;;;;32.74;35.23;99043.09;4402101;32;33730;-66
2023/07/24 10:09:13;;;;;;;14.27;8.20;;;;;;;32.76;36.08;99038.13;4420041;32;34114;-66
2023/07/24 10:11:41;;;;;;;10.48;6.62;;;;;;;33.25;35.06;99023.66;4421203;32;33608;-66
2023/07/24 10:14:10;;;;;;;20.85;7.50;;;;;;;33.52;35.13;99040.00;4434890;32;33865;-66
2023/07/24 10:16:37;;;;;;;13.62;7.95;;;;;;;33.47;34.36;99028.88;4425906;32;34213;-66
2023/07/24 10:19:13;;;;;;;13.90;8.18;;;;;;;33.59;33.77;99030.25;4413057;32;35130;-66
2023/07/24 10:21:46;;;;;;;11.70;7.45;;;;;;;34.08;33.53;99023.94;4417256;32;33273;-66
2023/07/24 10:24:17;;;;;;;13.57;7.55;;;;;;;34.07;33.33;99029.78;4404526;32;33234;-65
2023/07/24 10:27:03;;;;;;;13.60;8.75;;;;;;;33.44;32.96;99021.12;4413580;32;34856;-67
2023/07/24 10:29:35;;;;;;;14.25;7.50;;;;;;;33.76;32.30;99004.09;4416621;32;33384;-66
2023/07/24 10:32:03;;;;;;;12.45;8.15;;;;;;;33.92;33.01;99000.13;4414904;32;33288;-65
2023/07/24 10:34:38;;;;;;;11.82;6.93;;;;;;;34.00;32.64;99004.25;4417732;32;33691;-66
2023/07/24 10:37:11;;;;;;;12.23;7.87;;;;;;;34.10;33.61;99001.44;4417142;32;34795;-67
2023/07/24 10:39:40;;;;;;;13.38;7.78;;;;;;;34.46;32.60;98995.63;4416428;32;34274;-67
2023/07/24 10:42:09;;;;;;;14.32;8.15;;;;;;;34.45;31.52;98997.59;4418261;32;33275;-67
2023/07/24 10:44:37;;;;;;;11.00;7.25;;;;;;;34.28;32.21;98995.19;4416566;32;33320;-67
2023/07/24 10:47:05;;;;;;;14.45;8.20;;;;;;;34.58;31.82;98989.75;4414943;32;34460;-66
2023/07/24 10:49:34;;;;;;;14.38;8.00;;;;;;;34.82;31.14;98985.06;4416077;32;34160;-67
2023/07/24 10:52:01;;;;;;;12.13;7.03;;;;;;;34.64;32.44;98989.41;4415679;32;33393;-67
2023/07/24 10:54:29;;;;;;;11.40;6.80;;;;;;;34.01;32.14;98987.34;4414997;32;34671;-67
2023/07/24 10:57:02;;;;;;;13.13;7.32;;;;;;;34.56;32.43;98980.88;4419555;32;35659;-67
2023/07/24 10:59:40;;;;;;;13.02;7.85;;;;;;;34.85;32.43;98978.91;4433053;32;33865;-66
2023/07/24 11:02:07;;;;;;;12.98;7.80;;;;;;;34.68;31.84;98972.97;4432405;32;33540;-66
2023/07/24 11:04:36;;;;;;;13.73;7.95;;;;;;;34.58;31.72;98965.56;4433876;32;32758;-66
2023/07/24 11:07:03;;;;;;;13.10;7.22;;;;;;;34.89;31.92;98960.53;4433979;32;34962;-66
2023/07/24 11:09:36;;;;;;;11.93;6.45;;;;;;;34.72;32.37;98955.41;4431411;32;35143;-66
2023/07/24 11:12:14;;;;;;;11.43;7.47;;;;;;;34.71;31.56;98961.28;4432590;32;33500;-65
2023/07/24 11:14:47;;;;;;;12.82;7.18;;;;;;;34.91;31.51;98955.50;4427964;32;33886;-68
2023/07/24 11:17:15;;;;;;;15.32;7.97;;;;;;;34.72;32.05;98951.81;4432950;32;34029;-67
2023/07/24 11:19:43;;;;;;;15.27;8.27;;;;;;;34.22;32.69;98948.31;4435501;32;34611;-66
2023/07/24 11:22:11;;;;;;;11.32;6.85;;;;;;;34.06;33.43;98951.22;4431109;32;33315;-68
2023/07/24 11:24:46;;;;;;;9.68;6.18;;;;;;;35.03;32.48;98941.25;4434882;32;34597;-69
2023/07/24 11:27:16;;;;;;;12.07;7.07;;;;;;;35.04;31.51;98936.50;4434066;32;34931;-76
2023/07/24 11:29:49;;;;;;;14.75;8.30;;;;;;;34.91;31.86;98929.66;4435935;32;35056;-70
2023/07/24 11:32:18;;;;;;;11.27;7.43;;;;;;;34.45;32.20;98919.81;4437493;32;34433;-70
2023/07/24 11:34:48;;;;;;;14.07;7.57;;;;;;;34.56;31.83;98915.00;4431687;32;34056;-69